sensor_id;sensor_type;location;lat;lon;timestamp;temperature;humidity
26954;DHT22;14508;50.924;11.600;2022-09-09T00:01:10;13.90;99.90
26954;DHT22;14508;50.924;11.600;2022-09-09T00:03:44;13.90;99.90
26954;DHT22;14508;50.924;11.600;2022-09-09T00:06:17;13.80;99.90
26954;DHT22;14508;50.924;11.600;2022-09-09T00:08:58;13.80;99.90
26954;DHT22;14508;50.924;11.600;2022-09-09T00:11:30;13.80;99.90
26954;DHT22;14508;50.924;11.600;2022-09-09T00:14:00;13.80;99.90
26954;DHT22;14508;50.924;11.600;2022-09-09T00:16:32;13.70;99.90
26954;DHT22;14508;50.924;11.600;2022-09-09T00:19:07;13.70;99.90
26954;DHT22;14508;50.924;11.600;2022-09-09T00:21:36;13.70;99.90
26954;DHT22;14508;50.924;11.600;2022-09-09T00:24:10;13.70;99.90
26954;DHT22;14508;50.924;11.600;2022-09-09T00:26:42;13.70;99.90
26954;DHT22;14508;50.924;11.600;2022-09-09T00:29:14;13.70;99.90
26954;DHT22;14508;50.924;11.600;2022-09-09T00:31:46;13.70;99.90
26954;DHT22;14508;50.924;11.600;2022-09-09T00:34:18;13.70;99.90
26954;DHT22;14508;50.924;11.600;2022-09-09T00:36:49;13.70;99.90
26954;DHT22;14508;50.924;11.600;2022-09-09T00:39:23;13.70;99.90
26954;DHT22;14508;50.924;11.600;2022-09-09T00:42:02;13.60;99.90
26954;DHT22;14508;50.924;11.600;2022-09-09T00:44:37;13.60;99.90
26954;DHT22;14508;50.924;11.600;2022-09-09T00:47:16;13.60;99.90
26954;DHT22;14508;50.924;11.600;2022-09-09T00:49:56;13.60;99.90
26954;DHT22;14508;50.924;11.600;2022-09-09T00:52:31;13.60;99.90
26954;DHT22;14508;50.924;11.600;2022-09-09T00:55:06;13.60;99.90
26954;DHT22;14508;50.924;11.600;2022-09-09T00:57:36;13.60;99.90
26954;DHT22;14508;50.924;11.600;2022-09-09T01:00:18;13.60;99.90
26954;DHT22;14508;50.924;11.600;2022-09-09T01:05:41;13.60;99.90
26954;DHT22;14508;50.924;11.600;2022-09-09T01:08:20;13.60;99.90
26954;DHT22;14508;50.924;11.600;2022-09-09T01:10:51;13.60;99.90
26954;DHT22;14508;50.924;11.600;2022-09-09T01:13:25;13.60;99.90
26954;DHT22;14508;50.924;11.600;2022-09-09T01:15:53;13.60;99.90
26954;DHT22;14508;50.924;11.600;2022-09-09T01:22:13;13.50;99.90
26954;DHT22;14508;50.924;11.600;2022-09-09T01:25:12;13.50;99.90
26954;DHT22;14508;50.924;11.600;2022-09-09T01:28:02;13.50;99.90
26954;DHT22;14508;50.924;11.600;2022-09-09T01:30:31;13.40;99.90
26954;DHT22;14508;50.924;11.600;2022-09-09T01:33:00;13.40;99.90
26954;DHT22;14508;50.924;11.600;2022-09-09T01:35:36;13.30;99.90
26954;DHT22;14508;50.924;11.600;2022-09-09T01:38:05;13.30;99.90
26954;DHT22;14508;50.924;11.600;2022-09-09T01:40:33;13.30;99.90
26954;DHT22;14508;50.924;11.600;2022-09-09T01:43:02;13.30;99.90
26954;DHT22;14508;50.924;11.600;2022-09-09T01:45:30;13.20;99.90
26954;DHT22;14508;50.924;11.600;2022-09-09T01:47:57;13.20;99.90
26954;DHT22;14508;50.924;11.600;2022-09-09T01:50:38;13.20;99.90
26954;DHT22;14508;50.924;11.600;2022-09-09T01:53:07;13.10;99.90
26954;DHT22;14508;50.924;11.600;2022-09-09T01:55:39;13.10;99.90
26954;DHT22;14508;50.924;11.600;2022-09-09T01:58:25;13.10;99.90
26954;DHT22;14508;50.924;11.600;2022-09-09T02:01:02;13.10;99.90
26954;DHT22;14508;50.924;11.600;2022-09-09T02:03:32;13.10;99.90
26954;DHT22;14508;50.924;11.600;2022-09-09T02:06:14;13.00;99.90
26954;DHT22;14508;50.924;11.600;2022-09-09T02:08:50;13.00;99.90
26954;DHT22;14508;50.924;11.600;2022-09-09T02:11:20;13.00;99.90
26954;DHT22;14508;50.924;11.600;2022-09-09T02:13:59;13.00;99.90
26954;DHT22;14508;50.924;11.600;2022-09-09T02:16:29;13.00;99.90
26954;DHT22;14508;50.924;11.600;2022-09-09T02:19:02;13.00;99.90
26954;DHT22;14508;50.924;11.600;2022-09-09T02:21:40;13.00;99.90
26954;DHT22;14508;50.924;11.600;2022-09-09T02:24:08;12.90;99.90
26954;DHT22;14508;50.924;11.600;2022-09-09T02:26:43;12.90;99.90
26954;DHT22;14508;50.924;11.600;2022-09-09T02:29:17;13.00;99.90
26954;DHT22;14508;50.924;11.600;2022-09-09T02:31:47;13.00;99.90
26954;DHT22;14508;50.924;11.600;2022-09-09T02:34:22;13.00;99.90
26954;DHT22;14508;50.924;11.600;2022-09-09T02:36:50;13.00;99.90
26954;DHT22;14508;50.924;11.600;2022-09-09T02:39:19;13.00;99.90
26954;DHT22;14508;50.924;11.600;2022-09-09T02:41:49;13.00;99.90
26954;DHT22;14508;50.924;11.600;2022-09-09T02:44:18;13.00;99.90
26954;DHT22;14508;50.924;11.600;2022-09-09T02:47:03;13.00;99.90
26954;DHT22;14508;50.924;11.600;2022-09-09T02:49:38;13.00;99.90
26954;DHT22;14508;50.924;11.600;2022-09-09T02:52:11;13.00;99.90
26954;DHT22;14508;50.924;11.600;2022-09-09T02:54:41;13.10;99.90
26954;DHT22;14508;50.924;11.600;2022-09-09T02:57:13;13.10;99.90
26954;DHT22;14508;50.924;11.600;2022-09-09T02:59:45;13.10;99.90
26954;DHT22;14508;50.924;11.600;2022-09-09T03:02:12;13.00;99.90
26954;DHT22;14508;50.924;11.600;2022-09-09T03:04:41;13.00;99.90
26954;DHT22;14508;50.924;11.600;2022-09-09T03:07:10;13.00;99.90
26954;DHT22;14508;50.924;11.600;2022-09-09T03:09:37;13.00;99.90
26954;DHT22;14508;50.924;11.600;2022-09-09T03:12:04;13.00;99.90
26954;DHT22;14508;50.924;11.600;2022-09-09T03:14:33;13.00;99.90
26954;DHT22;14508;50.924;11.600;2022-09-09T03:17:02;13.00;99.90
26954;DHT22;14508;50.924;11.600;2022-09-09T03:19:34;13.00;99.90
26954;DHT22;14508;50.924;11.600;2022-09-09T03:22:04;13.10;99.90
26954;DHT22;14508;50.924;11.600;2022-09-09T03:24:34;13.10;99.90
26954;DHT22;14508;50.924;11.600;2022-09-09T03:27:03;13.20;99.90
26954;DHT22;14508;50.924;11.600;2022-09-09T03:29:30;13.20;99.90
26954;DHT22;14508;50.924;11.600;2022-09-09T03:32:03;13.20;99.90
26954;DHT22;14508;50.924;11.600;2022-09-09T03:34:30;13.30;99.90
26954;DHT22;14508;50.924;11.600;2022-09-09T03:36:58;13.40;99.90
26954;DHT22;14508;50.924;11.600;2022-09-09T03:39:26;13.50;99.90
26954;DHT22;14508;50.924;11.600;2022-09-09T03:41:54;13.60;99.90
26954;DHT22;14508;50.924;11.600;2022-09-09T03:44:21;13.80;99.90
26954;DHT22;14508;50.924;11.600;2022-09-09T03:46:47;14.00;99.90
26954;DHT22;14508;50.924;11.600;2022-09-09T03:49:15;14.20;99.90
26954;DHT22;14508;50.924;11.600;2022-09-09T03:51:42;14.30;99.90
26954;DHT22;14508;50.924;11.600;2022-09-09T03:54:12;14.40;99.90
26954;DHT22;14508;50.924;11.600;2022-09-09T03:56:40;14.50;99.90
26954;DHT22;14508;50.924;11.600;2022-09-09T03:59:08;14.50;99.90
26954;DHT22;14508;50.924;11.600;2022-09-09T04:01:35;14.40;99.90
26954;DHT22;14508;50.924;11.600;2022-09-09T04:04:02;14.30;99.90
26954;DHT22;14508;50.924;11.600;2022-09-09T04:06:31;14.20;99.90
26954;DHT22;14508;50.924;11.600;2022-09-09T04:08:57;14.20;99.90
26954;DHT22;14508;50.924;11.600;2022-09-09T04:11:25;14.10;99.90
26954;DHT22;14508;50.924;11.600;2022-09-09T04:13:55;14.00;99.90
26954;DHT22;14508;50.924;11.600;2022-09-09T04:16:22;14.00;99.90
26954;DHT22;14508;50.924;11.600;2022-09-09T04:18:48;14.00;99.90
26954;DHT22;14508;50.924;11.600;2022-09-09T04:21:16;14.00;99.90
26954;DHT22;14508;50.924;11.600;2022-09-09T04:23:44;13.90;99.90
26954;DHT22;14508;50.924;11.600;2022-09-09T04:26:11;13.90;99.90
26954;DHT22;14508;50.924;11.600;2022-09-09T04:28:38;14.00;99.90
26954;DHT22;14508;50.924;11.600;2022-09-09T04:31:15;13.90;99.90
26954;DHT22;14508;50.924;11.600;2022-09-09T04:33:44;14.00;99.90
26954;DHT22;14508;50.924;11.600;2022-09-09T04:36:12;13.90;99.90
26954;DHT22;14508;50.924;11.600;2022-09-09T04:38:39;13.90;99.90
26954;DHT22;14508;50.924;11.600;2022-09-09T04:41:07;13.90;99.90
26954;DHT22;14508;50.924;11.600;2022-09-09T04:43:37;13.90;99.90
26954;DHT22;14508;50.924;11.600;2022-09-09T04:46:06;13.90;99.90
26954;DHT22;14508;50.924;11.600;2022-09-09T04:48:33;13.90;99.90
26954;DHT22;14508;50.924;11.600;2022-09-09T04:51:02;13.90;99.90
26954;DHT22;14508;50.924;11.600;2022-09-09T04:53:31;13.80;99.90
26954;DHT22;14508;50.924;11.600;2022-09-09T04:56:04;13.80;99.90
26954;DHT22;14508;50.924;11.600;2022-09-09T04:58:35;13.80;99.90
26954;DHT22;14508;50.924;11.600;2022-09-09T05:01:06;13.80;99.90
26954;DHT22;14508;50.924;11.600;2022-09-09T05:03:33;13.80;99.90
26954;DHT22;14508;50.924;11.600;2022-09-09T05:06:05;13.80;99.90
26954;DHT22;14508;50.924;11.600;2022-09-09T05:08:32;13.80;99.90
26954;DHT22;14508;50.924;11.600;2022-09-09T05:10:59;13.80;99.90
26954;DHT22;14508;50.924;11.600;2022-09-09T05:13:26;13.80;99.90
26954;DHT22;14508;50.924;11.600;2022-09-09T05:15:55;13.80;99.90
26954;DHT22;14508;50.924;11.600;2022-09-09T05:18:22;13.80;99.90
26954;DHT22;14508;50.924;11.600;2022-09-09T05:20:49;13.90;99.90
26954;DHT22;14508;50.924;11.600;2022-09-09T05:23:17;13.90;99.90
26954;DHT22;14508;50.924;11.600;2022-09-09T05:25:43;13.90;99.90
26954;DHT22;14508;50.924;11.600;2022-09-09T05:28:13;14.00;99.90
26954;DHT22;14508;50.924;11.600;2022-09-09T05:30:40;14.00;99.90
26954;DHT22;14508;50.924;11.600;2022-09-09T05:33:08;14.00;99.90
26954;DHT22;14508;50.924;11.600;2022-09-09T05:35:35;14.10;99.90
26954;DHT22;14508;50.924;11.600;2022-09-09T05:38:01;14.10;99.90
26954;DHT22;14508;50.924;11.600;2022-09-09T05:40:28;14.10;99.90
26954;DHT22;14508;50.924;11.600;2022-09-09T05:43:00;14.10;99.90
26954;DHT22;14508;50.924;11.600;2022-09-09T05:45:27;14.20;99.90
26954;DHT22;14508;50.924;11.600;2022-09-09T05:47:54;14.20;99.90
26954;DHT22;14508;50.924;11.600;2022-09-09T05:50:22;14.20;99.90
26954;DHT22;14508;50.924;11.600;2022-09-09T05:52:54;14.20;99.90
26954;DHT22;14508;50.924;11.600;2022-09-09T05:55:21;14.30;99.90
26954;DHT22;14508;50.924;11.600;2022-09-09T05:57:49;14.30;99.90
26954;DHT22;14508;50.924;11.600;2022-09-09T06:00:17;14.30;99.90
26954;DHT22;14508;50.924;11.600;2022-09-09T06:02:50;14.40;99.90
26954;DHT22;14508;50.924;11.600;2022-09-09T06:05:19;14.40;99.90
26954;DHT22;14508;50.924;11.600;2022-09-09T06:07:52;14.50;99.90
26954;DHT22;14508;50.924;11.600;2022-09-09T06:10:18;14.50;99.90
26954;DHT22;14508;50.924;11.600;2022-09-09T06:12:45;14.60;99.90
26954;DHT22;14508;50.924;11.600;2022-09-09T06:15:12;14.60;99.90
26954;DHT22;14508;50.924;11.600;2022-09-09T06:17:39;14.60;99.90
26954;DHT22;14508;50.924;11.600;2022-09-09T06:20:07;14.70;99.90
26954;DHT22;14508;50.924;11.600;2022-09-09T06:22:35;14.70;99.90
26954;DHT22;14508;50.924;11.600;2022-09-09T06:25:04;14.80;99.90
26954;DHT22;14508;50.924;11.600;2022-09-09T06:27:31;14.80;99.90
26954;DHT22;14508;50.924;11.600;2022-09-09T06:29:58;14.80;99.90
26954;DHT22;14508;50.924;11.600;2022-09-09T06:32:28;14.90;99.90
26954;DHT22;14508;50.924;11.600;2022-09-09T06:34:54;14.90;99.90
26954;DHT22;14508;50.924;11.600;2022-09-09T06:37:21;15.00;99.90
26954;DHT22;14508;50.924;11.600;2022-09-09T06:39:49;15.20;99.90
26954;DHT22;14508;50.924;11.600;2022-09-09T06:42:18;15.30;99.90
26954;DHT22;14508;50.924;11.600;2022-09-09T06:44:56;15.40;99.90
26954;DHT22;14508;50.924;11.600;2022-09-09T06:47:36;15.60;99.90
26954;DHT22;14508;50.924;11.600;2022-09-09T06:50:04;15.80;99.90
26954;DHT22;14508;50.924;11.600;2022-09-09T06:52:34;16.00;99.90
26954;DHT22;14508;50.924;11.600;2022-09-09T06:55:03;16.20;99.90
26954;DHT22;14508;50.924;11.600;2022-09-09T06:57:32;16.30;99.90
26954;DHT22;14508;50.924;11.600;2022-09-09T07:00:00;16.40;99.90
26954;DHT22;14508;50.924;11.600;2022-09-09T07:02:27;16.50;99.90
26954;DHT22;14508;50.924;11.600;2022-09-09T07:04:54;16.50;99.90
26954;DHT22;14508;50.924;11.600;2022-09-09T07:07:24;16.60;99.90
26954;DHT22;14508;50.924;11.600;2022-09-09T07:09:51;16.60;99.90
26954;DHT22;14508;50.924;11.600;2022-09-09T07:12:18;16.70;99.90
26954;DHT22;14508;50.924;11.600;2022-09-09T07:14:54;16.80;99.90
26954;DHT22;14508;50.924;11.600;2022-09-09T07:17:20;16.80;99.90
26954;DHT22;14508;50.924;11.600;2022-09-09T07:19:47;16.80;99.90
26954;DHT22;14508;50.924;11.600;2022-09-09T07:22:15;16.90;99.90
26954;DHT22;14508;50.924;11.600;2022-09-09T07:24:43;16.90;99.90
26954;DHT22;14508;50.924;11.600;2022-09-09T07:27:12;17.00;99.90
26954;DHT22;14508;50.924;11.600;2022-09-09T07:29:39;17.10;99.90
26954;DHT22;14508;50.924;11.600;2022-09-09T07:32:09;17.40;99.90
26954;DHT22;14508;50.924;11.600;2022-09-09T07:34:37;17.60;99.90
26954;DHT22;14508;50.924;11.600;2022-09-09T07:37:04;17.80;99.90
26954;DHT22;14508;50.924;11.600;2022-09-09T07:39:32;17.90;99.90
26954;DHT22;14508;50.924;11.600;2022-09-09T07:41:59;18.10;99.90
26954;DHT22;14508;50.924;11.600;2022-09-09T07:44:26;18.30;99.90
26954;DHT22;14508;50.924;11.600;2022-09-09T07:47:04;18.50;99.90
26954;DHT22;14508;50.924;11.600;2022-09-09T07:49:37;18.60;99.90
26954;DHT22;14508;50.924;11.600;2022-09-09T07:52:05;18.60;99.90
26954;DHT22;14508;50.924;11.600;2022-09-09T07:54:33;18.60;99.90
26954;DHT22;14508;50.924;11.600;2022-09-09T07:57:03;18.70;99.90
26954;DHT22;14508;50.924;11.600;2022-09-09T07:59:32;18.70;99.90
26954;DHT22;14508;50.924;11.600;2022-09-09T08:01:59;18.70;99.90
26954;DHT22;14508;50.924;11.600;2022-09-09T08:04:28;18.80;99.90
26954;DHT22;14508;50.924;11.600;2022-09-09T08:06:58;18.80;99.90
26954;DHT22;14508;50.924;11.600;2022-09-09T08:09:26;18.90;99.90
26954;DHT22;14508;50.924;11.600;2022-09-09T08:12:00;18.90;99.90
26954;DHT22;14508;50.924;11.600;2022-09-09T08:14:28;18.80;99.90
26954;DHT22;14508;50.924;11.600;2022-09-09T08:16:56;18.80;99.90
26954;DHT22;14508;50.924;11.600;2022-09-09T08:19:26;18.80;99.90
26954;DHT22;14508;50.924;11.600;2022-09-09T08:21:56;18.90;99.90
26954;DHT22;14508;50.924;11.600;2022-09-09T08:24:23;19.10;99.90
26954;DHT22;14508;50.924;11.600;2022-09-09T08:26:51;19.20;99.90
26954;DHT22;14508;50.924;11.600;2022-09-09T08:29:22;19.30;99.90
26954;DHT22;14508;50.924;11.600;2022-09-09T08:31:52;19.30;99.90
26954;DHT22;14508;50.924;11.600;2022-09-09T08:34:21;19.40;99.90
26954;DHT22;14508;50.924;11.600;2022-09-09T08:36:50;19.60;99.90
26954;DHT22;14508;50.924;11.600;2022-09-09T08:39:21;19.70;99.90
26954;DHT22;14508;50.924;11.600;2022-09-09T08:42:07;19.90;99.90
26954;DHT22;14508;50.924;11.600;2022-09-09T08:44:58;20.10;99.90
26954;DHT22;14508;50.924;11.600;2022-09-09T08:47:35;20.20;99.90
26954;DHT22;14508;50.924;11.600;2022-09-09T08:50:18;20.40;99.90
26954;DHT22;14508;50.924;11.600;2022-09-09T08:52:53;20.60;99.90
26954;DHT22;14508;50.924;11.600;2022-09-09T08:55:27;20.70;99.20
26954;DHT22;14508;50.924;11.600;2022-09-09T08:57:57;20.80;98.50
26954;DHT22;14508;50.924;11.600;2022-09-09T09:00:31;20.90;97.80
26954;DHT22;14508;50.924;11.600;2022-09-09T09:03:08;21.00;97.10
26954;DHT22;14508;50.924;11.600;2022-09-09T09:05:46;21.10;96.40
26954;DHT22;14508;50.924;11.600;2022-09-09T09:08:23;21.10;95.40
26954;DHT22;14508;50.924;11.600;2022-09-09T09:10:54;21.20;94.20
26954;DHT22;14508;50.924;11.600;2022-09-09T09:13:33;21.30;93.50
26954;DHT22;14508;50.924;11.600;2022-09-09T09:16:09;21.40;92.40
26954;DHT22;14508;50.924;11.600;2022-09-09T09:18:38;21.50;92.00
26954;DHT22;14508;50.924;11.600;2022-09-09T09:21:11;21.60;90.50
26954;DHT22;14508;50.924;11.600;2022-09-09T09:23:46;21.90;90.30
26954;DHT22;14508;50.924;11.600;2022-09-09T09:26:18;22.20;89.20
26954;DHT22;14508;50.924;11.600;2022-09-09T09:28:47;22.30;86.30
26954;DHT22;14508;50.924;11.600;2022-09-09T09:31:18;22.40;84.30
26954;DHT22;14508;50.924;11.600;2022-09-09T09:33:49;22.50;82.70
26954;DHT22;14508;50.924;11.600;2022-09-09T09:36:19;22.60;80.40
26954;DHT22;14508;50.924;11.600;2022-09-09T09:38:56;22.80;78.70
26954;DHT22;14508;50.924;11.600;2022-09-09T09:41:31;22.90;77.20
26954;DHT22;14508;50.924;11.600;2022-09-09T09:43:59;22.90;75.80
26954;DHT22;14508;50.924;11.600;2022-09-09T09:46:28;22.90;74.20
26954;DHT22;14508;50.924;11.600;2022-09-09T09:49:09;22.70;72.30
26954;DHT22;14508;50.924;11.600;2022-09-09T09:51:37;22.50;74.10
26954;DHT22;14508;50.924;11.600;2022-09-09T09:54:09;22.30;72.80
26954;DHT22;14508;50.924;11.600;2022-09-09T09:56:45;22.20;73.70
26954;DHT22;14508;50.924;11.600;2022-09-09T09:59:32;22.00;73.60
26954;DHT22;14508;50.924;11.600;2022-09-09T10:02:13;21.90;72.80
26954;DHT22;14508;50.924;11.600;2022-09-09T10:04:40;21.90;73.70
26954;DHT22;14508;50.924;11.600;2022-09-09T10:07:10;21.80;75.00
26954;DHT22;14508;50.924;11.600;2022-09-09T10:09:37;21.80;72.70
26954;DHT22;14508;50.924;11.600;2022-09-09T10:12:14;21.80;73.60
26954;DHT22;14508;50.924;11.600;2022-09-09T10:14:48;22.00;74.20
26954;DHT22;14508;50.924;11.600;2022-09-09T10:17:22;22.10;72.60
26954;DHT22;14508;50.924;11.600;2022-09-09T10:20:00;22.10;71.80
26954;DHT22;14508;50.924;11.600;2022-09-09T10:22:34;22.40;72.80
26954;DHT22;14508;50.924;11.600;2022-09-09T10:25:30;22.60;71.70
26954;DHT22;14508;50.924;11.600;2022-09-09T10:28:19;22.80;69.60
26954;DHT22;14508;50.924;11.600;2022-09-09T10:30:54;22.80;68.20
26954;DHT22;14508;50.924;11.600;2022-09-09T10:33:30;22.80;68.20
26954;DHT22;14508;50.924;11.600;2022-09-09T10:36:03;22.80;68.90
26954;DHT22;14508;50.924;11.600;2022-09-09T10:38:39;22.90;67.60
26954;DHT22;14508;50.924;11.600;2022-09-09T10:41:15;23.30;66.20
26954;DHT22;14508;50.924;11.600;2022-09-09T10:43:56;23.40;65.00
26954;DHT22;14508;50.924;11.600;2022-09-09T10:46:34;23.30;65.30
26954;DHT22;14508;50.924;11.600;2022-09-09T10:49:13;23.40;65.30
26954;DHT22;14508;50.924;11.600;2022-09-09T10:51:51;23.60;64.80
26954;DHT22;14508;50.924;11.600;2022-09-09T10:54:30;23.90;64.20
26954;DHT22;14508;50.924;11.600;2022-09-09T10:57:01;24.20;63.40
26954;DHT22;14508;50.924;11.600;2022-09-09T10:59:33;24.20;59.90
26954;DHT22;14508;50.924;11.600;2022-09-09T11:02:03;24.00;60.40
26954;DHT22;14508;50.924;11.600;2022-09-09T11:04:35;23.90;60.30
26954;DHT22;14508;50.924;11.600;2022-09-09T11:07:08;23.90;59.70
26954;DHT22;14508;50.924;11.600;2022-09-09T11:09:44;24.00;59.60
26954;DHT22;14508;50.924;11.600;2022-09-09T11:12:19;24.10;59.60
26954;DHT22;14508;50.924;11.600;2022-09-09T11:14:50;24.20;59.00
26954;DHT22;14508;50.924;11.600;2022-09-09T11:17:23;24.30;58.60
26954;DHT22;14508;50.924;11.600;2022-09-09T11:19:51;24.30;58.00
26954;DHT22;14508;50.924;11.600;2022-09-09T11:22:25;24.30;58.10
26954;DHT22;14508;50.924;11.600;2022-09-09T11:24:58;24.50;58.40
26954;DHT22;14508;50.924;11.600;2022-09-09T11:27:31;24.50;57.00
26954;DHT22;14508;50.924;11.600;2022-09-09T11:30:17;24.40;57.20
26954;DHT22;14508;50.924;11.600;2022-09-09T11:35:56;24.60;56.60
26954;DHT22;14508;50.924;11.600;2022-09-09T11:38:27;24.70;55.90
26954;DHT22;14508;50.924;11.600;2022-09-09T11:40:56;24.50;55.80
26954;DHT22;14508;50.924;11.600;2022-09-09T11:43:28;24.40;55.40
26954;DHT22;14508;50.924;11.600;2022-09-09T11:46:00;24.20;55.30
26954;DHT22;14508;50.924;11.600;2022-09-09T11:48:32;24.20;55.90
26954;DHT22;14508;50.924;11.600;2022-09-09T11:51:02;24.20;56.00
26954;DHT22;14508;50.924;11.600;2022-09-09T11:53:31;24.30;56.10
26954;DHT22;14508;50.924;11.600;2022-09-09T11:56:26;24.50;55.30
26954;DHT22;14508;50.924;11.600;2022-09-09T11:58:55;24.60;54.70
26954;DHT22;14508;50.924;11.600;2022-09-09T12:01:34;24.50;54.50
26954;DHT22;14508;50.924;11.600;2022-09-09T12:04:15;24.40;54.60
26954;DHT22;14508;50.924;11.600;2022-09-09T12:06:45;24.40;54.80
26954;DHT22;14508;50.924;11.600;2022-09-09T12:12:26;24.10;55.20
26954;DHT22;14508;50.924;11.600;2022-09-09T12:15:25;23.80;53.90
26954;DHT22;14508;50.924;11.600;2022-09-09T12:17:56;23.60;53.90
26954;DHT22;14508;50.924;11.600;2022-09-09T12:20:30;23.40;54.30
26954;DHT22;14508;50.924;11.600;2022-09-09T12:23:08;23.30;54.90
26954;DHT22;14508;50.924;11.600;2022-09-09T12:25:58;23.30;55.80
26954;DHT22;14508;50.924;11.600;2022-09-09T12:28:39;23.10;54.60
26954;DHT22;14508;50.924;11.600;2022-09-09T12:31:10;23.10;54.10
26954;DHT22;14508;50.924;11.600;2022-09-09T12:33:45;23.10;52.90
26954;DHT22;14508;50.924;11.600;2022-09-09T12:36:15;23.00;51.80
26954;DHT22;14508;50.924;11.600;2022-09-09T12:38:43;22.90;52.00
26954;DHT22;14508;50.924;11.600;2022-09-09T12:41:19;22.90;51.90
26954;DHT22;14508;50.924;11.600;2022-09-09T12:43:46;22.80;51.90
26954;DHT22;14508;50.924;11.600;2022-09-09T12:46:20;22.90;52.20
26954;DHT22;14508;50.924;11.600;2022-09-09T12:48:53;22.90;52.60
26954;DHT22;14508;50.924;11.600;2022-09-09T12:51:24;22.90;53.00
26954;DHT22;14508;50.924;11.600;2022-09-09T12:53:52;22.90;53.80
26954;DHT22;14508;50.924;11.600;2022-09-09T12:56:20;23.00;54.20
26954;DHT22;14508;50.924;11.600;2022-09-09T12:58:49;23.00;54.50
26954;DHT22;14508;50.924;11.600;2022-09-09T13:01:21;23.00;54.50
26954;DHT22;14508;50.924;11.600;2022-09-09T13:03:48;23.00;55.10
26954;DHT22;14508;50.924;11.600;2022-09-09T13:06:20;23.10;55.30
26954;DHT22;14508;50.924;11.600;2022-09-09T13:08:48;23.00;55.70
26954;DHT22;14508;50.924;11.600;2022-09-09T13:11:18;22.80;55.70
26954;DHT22;14508;50.924;11.600;2022-09-09T13:13:50;22.80;56.40
26954;DHT22;14508;50.924;11.600;2022-09-09T13:16:20;22.70;56.90
26954;DHT22;14508;50.924;11.600;2022-09-09T13:18:48;22.50;57.30
26954;DHT22;14508;50.924;11.600;2022-09-09T13:21:15;22.40;57.80
26954;DHT22;14508;50.924;11.600;2022-09-09T13:23:48;22.40;58.20
26954;DHT22;14508;50.924;11.600;2022-09-09T13:26:24;22.50;58.80
26954;DHT22;14508;50.924;11.600;2022-09-09T13:28:51;22.50;59.00
26954;DHT22;14508;50.924;11.600;2022-09-09T13:31:24;22.40;58.30
26954;DHT22;14508;50.924;11.600;2022-09-09T13:33:52;22.40;58.60
26954;DHT22;14508;50.924;11.600;2022-09-09T13:36:28;22.40;58.50
26954;DHT22;14508;50.924;11.600;2022-09-09T13:38:59;22.30;58.10
26954;DHT22;14508;50.924;11.600;2022-09-09T13:41:35;22.30;58.00
26954;DHT22;14508;50.924;11.600;2022-09-09T13:44:03;22.30;58.20
26954;DHT22;14508;50.924;11.600;2022-09-09T13:46:34;22.30;58.30
26954;DHT22;14508;50.924;11.600;2022-09-09T13:49:18;22.30;57.40
26954;DHT22;14508;50.924;11.600;2022-09-09T13:51:47;22.20;57.40
26954;DHT22;14508;50.924;11.600;2022-09-09T13:54:18;22.20;57.50
26954;DHT22;14508;50.924;11.600;2022-09-09T13:56:46;22.20;57.70
26954;DHT22;14508;50.924;11.600;2022-09-09T13:59:16;22.30;57.60
26954;DHT22;14508;50.924;11.600;2022-09-09T14:01:45;22.50;57.40
26954;DHT22;14508;50.924;11.600;2022-09-09T14:04:12;22.70;57.40
26954;DHT22;14508;50.924;11.600;2022-09-09T14:06:39;22.90;57.00
26954;DHT22;14508;50.924;11.600;2022-09-09T14:09:07;23.10;57.20
26954;DHT22;14508;50.924;11.600;2022-09-09T14:11:35;23.20;57.00
26954;DHT22;14508;50.924;11.600;2022-09-09T14:14:02;23.30;57.30
26954;DHT22;14508;50.924;11.600;2022-09-09T14:16:30;23.40;57.20
26954;DHT22;14508;50.924;11.600;2022-09-09T14:18:56;23.40;57.20
26954;DHT22;14508;50.924;11.600;2022-09-09T14:21:25;23.40;57.20
26954;DHT22;14508;50.924;11.600;2022-09-09T14:23:52;23.30;57.40
26954;DHT22;14508;50.924;11.600;2022-09-09T14:26:19;23.30;57.60
26954;DHT22;14508;50.924;11.600;2022-09-09T14:28:48;23.30;57.80
26954;DHT22;14508;50.924;11.600;2022-09-09T14:31:15;23.30;56.60
26954;DHT22;14508;50.924;11.600;2022-09-09T14:33:43;23.30;56.20
26954;DHT22;14508;50.924;11.600;2022-09-09T14:36:09;23.30;55.50
26954;DHT22;14508;50.924;11.600;2022-09-09T14:38:38;23.20;55.00
26954;DHT22;14508;50.924;11.600;2022-09-09T14:41:05;23.20;53.80
26954;DHT22;14508;50.924;11.600;2022-09-09T14:43:32;23.10;52.70
26954;DHT22;14508;50.924;11.600;2022-09-09T14:46:06;23.10;52.50
26954;DHT22;14508;50.924;11.600;2022-09-09T14:48:33;23.20;52.70
26954;DHT22;14508;50.924;11.600;2022-09-09T14:51:05;23.30;53.00
26954;DHT22;14508;50.924;11.600;2022-09-09T14:53:32;23.30;53.10
26954;DHT22;14508;50.924;11.600;2022-09-09T14:56:04;23.40;53.20
26954;DHT22;14508;50.924;11.600;2022-09-09T14:58:31;23.40;53.50
26954;DHT22;14508;50.924;11.600;2022-09-09T15:01:02;23.40;54.30
26954;DHT22;14508;50.924;11.600;2022-09-09T15:03:31;23.50;54.80
26954;DHT22;14508;50.924;11.600;2022-09-09T15:05:58;23.50;55.00
26954;DHT22;14508;50.924;11.600;2022-09-09T15:08:30;23.40;55.00
26954;DHT22;14508;50.924;11.600;2022-09-09T15:10:59;23.30;54.80
26954;DHT22;14508;50.924;11.600;2022-09-09T15:13:26;23.30;54.80
26954;DHT22;14508;50.924;11.600;2022-09-09T15:15:53;23.20;55.00
26954;DHT22;14508;50.924;11.600;2022-09-09T15:18:20;23.10;55.80
26954;DHT22;14508;50.924;11.600;2022-09-09T15:20:48;23.10;56.20
26954;DHT22;14508;50.924;11.600;2022-09-09T15:23:15;23.00;56.60
26954;DHT22;14508;50.924;11.600;2022-09-09T15:25:50;23.00;56.80
26954;DHT22;14508;50.924;11.600;2022-09-09T15:28:18;22.90;57.00
26954;DHT22;14508;50.924;11.600;2022-09-09T15:30:47;22.80;57.10
26954;DHT22;14508;50.924;11.600;2022-09-09T15:33:14;22.80;57.10
26954;DHT22;14508;50.924;11.600;2022-09-09T15:35:41;22.70;57.10
26954;DHT22;14508;50.924;11.600;2022-09-09T15:38:09;22.70;57.50
26954;DHT22;14508;50.924;11.600;2022-09-09T15:40:35;22.60;57.60
26954;DHT22;14508;50.924;11.600;2022-09-09T15:43:02;22.70;57.80
26954;DHT22;14508;50.924;11.600;2022-09-09T15:45:31;22.60;57.70
26954;DHT22;14508;50.924;11.600;2022-09-09T15:47:59;22.60;58.10
26954;DHT22;14508;50.924;11.600;2022-09-09T15:50:26;22.60;58.20
26954;DHT22;14508;50.924;11.600;2022-09-09T15:52:53;22.60;58.30